Fort Worth, Texas
Current Conditions -  °F | °C
As of 5:53 AM on Saturday 25 Oct 2014 (Local Time) from KFTW Reporting Station
Clear Clear  
Wind Chill: 66°   Ceiling: Unl
Heat Index: 66°   Visibility: 10mi
Dew Point: 58°   Wind: 6mph
Humidity: 75%   Direction: 180°S
Pressure: 30.09"   Gusts: NA
Location:  32.75°N, 97.33°W
Report Text: KFTW 251053Z AUTO 18005KT 10SM CLR 19/14 A3009 RMK AO2 SLP181 T01890144
Loading
Personal Weather Stations






























Interactive Weather Map
Tropical Storm Tracking
New forecast layout! Learn more

10-Day Weather Forecast

Advertisements
Track Severe Weather on mobile